Sackville, Canada
Current Conditions -  °F | °C
As of 10:00 AM on Thursday 23 Oct 2014 (Local Time) from CYQM Reporting Station
Overcast Overcast  
Wind Chill: 50°   Ceiling: 1900
Heat Index: 50°   Visibility: 15mi
Dew Point: 46°   Wind: 17mph
Humidity: 87%   Direction: 50°NE
Pressure: 30.14"   Gusts: 26mph
Location:  45.9°N, 64.37°W
Report Text: CYQM 231300Z 05015G23KT 15SM FEW006 BKN019 OVC055 10/08 A3014 RMK SF1SC4SC3 SLP207
Loading
Personal Weather Stations






























Interactive Weather Map
Tropical Storm Tracking
New forecast layout! Learn more

10-Day Weather Forecast

Advertisements
Track Severe Weather on mobile